Create Custom Reports and Graphics: Custom Report

Stanford Met Tower

Current Conditions

7/14/20 3:15 AM (-07:00)
Updated Every 15 Minutes
Temp 56.6 °F   0.8
RH 84 %   8
Dew Pt 51.9 °F   3.2
Wind Dir SSW | 209 °
Wind Spd 5.0 mph   2.4
Wind Gust 9.0 mph   4.3
Solar Rad 0 W/m2   0
Daily Min Temp 56.2 °F   0.8
Daily Max Temp 57.4 °F   5.5
Daily Max Wind 9.1 mph   2.5
Daily Rain 0.00 In
Min Temp Yest 54.8 °F
Max Temp Yest 80.9 °F
Max Wind Yest 20.3 mph
Rain Yest 0.00 In
Seasonal Rainfall 0.00 In

Last 48 Hours

Stanford Met Tower

Hourly Data | America/Los_Angeles
as of 7/14/20 3:40 AM PDT
Date & Time Temp (°F) Temp Inversion (°F) RH (%) Dew Pt (°F) Wind Dir (°) Wind Spd (mph) Wind Gust (mph) Latest Rain (In) ETo Hr (in) ETo 2pm (In) Daily Rain (In) Daily Min Temp (°F) Daily Max Temp (°F)
7/14/20 - 0300 56.5 0.3 84 51.9 SSW | 212 4.8 9.1 0.00 0.000 0.20 0.00 56.2 57.4
7/14/20 - 0200 56.6 0.2 84 51.8 SSW | 212 3.9 7.9 0.00 0.000 0.20 0.00 56.2 57.3
7/14/20 - 0100 56.3 0.4 87 52.5 SSW | 194 5.0 8.2 0.00 0.000 0.20 0.00 54.8 80.9
7/14/20 - 0000 57.1 -0.0 84 52.5 S | 191 5.8 9.5 0.00 0.000 0.20 0.00 54.8 80.9
7/13/20 - 2300 58.8 0.0 83 53.8 SSW | 192 6.3 9.9 0.00 0.000 0.20 0.00 54.8 80.9
7/13/20 - 2200 61.6 -0.1 81 55.6 S | 190 5.8 10.9 0.00 0.000 0.20 0.00 54.8 80.9
7/13/20 - 2100 61.9 -0.3 71 52.5 SSW | 209 5.5 13.5 0.00 0.000 0.20 0.00 54.8 80.9
7/13/20 - 2000 63.5 -1.1 68 52.6 SSW | 206 8.4 19.0 0.00 0.001 0.20 0.00 54.8 80.9
7/13/20 - 1900 67.7 -2.2 61 53.8 SSW | 212 10.3 20.3 0.00 0.006 0.20 0.00 54.8 80.9
7/13/20 - 1800 74.2 -3.6 51 54.9 SSW | 207 9.5 20.0 0.00 0.012 0.20 0.00 54.8 80.9
7/13/20 - 1700 75.6 -5.0 52 56.8 SW | 218 9.0 18.0 0.00 0.017 0.20 0.00 54.8 80.9
7/13/20 - 1600 78.8 -6.3 47 56.8 SW | 227 9.0 19.9 0.00 0.022 0.20 0.00 54.8 80.9
7/13/20 - 1500 79.8 -5.4 48 58.2 NE | 38 5.9 11.8 0.00 0.024 0.20 0.00 54.8 80.5
7/13/20 - 1400 73.7 -8.2 59 58.4 NNE | 16 6.8 14.1 0.00 0.025 0.22 0.00 54.8 74.6
7/13/20 - 1300 72.0 -9.6 63 58.7 NNE | 26 6.5 13.4 0.00 0.024 0.22 0.00 54.8 72.9
7/13/20 - 1200 70.0 -8.6 66 58.3 NE | 38 7.5 14.7 0.00 0.022 0.22 0.00 54.8 72.9
7/13/20 - 1100 70.2 -8.1 66 58.5 NE | 54 6.8 13.0 0.00 0.019 0.22 0.00 54.8 72.9
7/13/20 - 1000 70.9 -5.0 70 60.7 ENE | 71 3.1 7.2 0.00 0.014 0.22 0.00 54.8 71.2
7/13/20 - 0900 67.4 -3.3 73 58.4 E | 87 2.9 7.1 0.00 0.009 0.22 0.00 54.8 68.0
7/13/20 - 0800 64.2 -1.7 79 57.6 SE | 129 4.3 8.6 0.00 0.004 0.22 0.00 54.8 64.8
7/13/20 - 0700 58.4 1.3 91 55.8 S | 173 3.1 6.6 0.00 0.000 0.22 0.00 54.8 62.9
7/13/20 - 0600 55.1 0.7 93 53.2 SSW | 204 3.9 7.3 0.00 0.000 0.22 0.00 54.8 62.9
7/13/20 - 0500 56.3 0.9 93 54.3 S | 177 3.2 5.9 0.00 0.000 0.22 0.00 56.3 62.9
7/13/20 - 0400 57.6 0.8 93 55.5 SSE | 156 2.3 6.0 0.00 0.000 0.22 0.00 57.0 62.9
7/13/20 - 0300 57.5 1.7 91 54.9 SSE | 150 1.0 3.6 0.00 0.000 0.22 0.00 57.5 62.9
7/13/20 - 0200 58.3 2.6 87 54.5 ESE | 104 2.3 6.6 0.00 0.000 0.22 0.00 58.1 62.9
7/13/20 - 0100 61.8 1.5 78 54.9 ESE | 116 3.4 7.3 0.00 0.000 0.22 0.00 50.6 93.1
7/13/20 - 0000 64.0 1.0 76 56.4 SE | 131 3.1 7.0 0.00 0.000 0.22 0.00 50.6 93.1
7/12/20 - 2300 62.8 2.6 83 57.6 E | 97 1.7 4.0 0.00 0.000 0.22 0.00 50.6 93.1
7/12/20 - 2200 68.8 1.1 72 59.3 ENE | 73 2.9 5.9 0.00 0.000 0.22 0.00 50.6 93.1
7/12/20 - 2100 73.4 0.5 49 53.0 NW | 318 3.4 9.1 0.00 0.000 0.22 0.00 50.6 93.1
7/12/20 - 2000 78.6 -0.3 41 52.6 NW | 304 6.6 14.8 0.00 0.001 0.22 0.00 50.6 93.1
7/12/20 - 1900 83.1 -2.5 35 52.6 NW | 322 7.2 14.1 0.00 0.007 0.22 0.00 50.6 93.1
7/12/20 - 1800 87.4 -3.7 25 47.5 NNW | 342 8.3 15.6 0.00 0.013 0.22 0.00 50.6 93.1
7/12/20 - 1700 92.1 -4.7 26 52.3 NNE | 32 5.9 14.6 0.00 0.019 0.22 0.00 50.6 93.1
7/12/20 - 1600 87.8 -8.1 37 58.1 N | 5 5.6 11.3 0.00 0.024 0.22 0.00 50.6 87.8
7/12/20 - 1500 82.9 -9.4 43 58.5 N | 5 6.6 12.8 0.00 0.026 0.22 0.00 50.6 84.7
7/12/20 - 1400 84.0 -10.8 45 60.4 N | 3 5.4 9.6 0.00 0.028 0.22 0.00 50.6 84.2
7/12/20 - 1300 80.9 -9.2 49 60.2 N | 8 4.7 9.5 0.00 0.027 0.22 0.00 50.6 82.3
7/12/20 - 1200 79.6 -9.2 53 61.2 NNE | 16 4.0 9.1 0.00 0.024 0.22 0.00 50.6 80.2
7/12/20 - 1100 75.0 -8.0 58 59.0 NE | 41 3.6 9.5 0.00 0.020 0.22 0.00 50.6 75.9
7/12/20 - 1000 71.6 -5.8 62 58.1 NE | 40 1.9 6.0 0.00 0.015 0.22 0.00 50.6 73.0
7/12/20 - 0900 66.8 -3.5 69 56.4 NE | 40 2.4 5.9 0.00 0.009 0.22 0.00 50.6 67.3
7/12/20 - 0800 65.3 -1.5 72 56.0 SSE | 150 1.7 4.7 0.00 0.004 0.22 0.00 50.6 65.5
7/12/20 - 0700 55.8 0.9 80 49.7 SSW | 195 4.8 7.4 0.00 0.000 0.22 0.00 50.6 59.3
7/12/20 - 0600 51.1 1.5 87 47.4 SSW | 206 4.3 7.3 0.00 0.000 0.22 0.00 51.1 59.3
7/12/20 - 0500 51.5 2.3 90 48.7 SSW | 212 3.2 4.9 0.00 0.000 0.22 0.00 51.5 59.3
7/12/20 - 0400 52.8 1.5 91 50.3 SW | 228 1.4 4.0 0.00 0.000 0.22 0.00 52.8 59.3
7/12/20 - 0300 55.0 3.1 90 52.0 W | 261 1.7 4.5 0.00 0.000 0.22 0.00 55.0 59.3
Max 92.1 3.1 93 61.2 - 10.3 20.3 0.00 0.028 0.22 0.00 58.1 93.1
Avg 67.6 -2.5 68 55.2 - 4.8 10.0 0.00 0.008 0.21 - - -
Min 51.1 -10.8 25 47.4 - 1.0 3.6 0.00 0.000 0.20 0.00 50.6 57.3
Total - - - - - - - 0.00 0.416 - - - -
Calm: 0.0%
Calm: 0.0%